createdAt,value
2019-05-07T00:01:25.102Z,100.00
2019-05-07T00:03:54.612Z,100.00
2019-05-07T00:06:27.302Z,100.00
2019-05-07T00:08:56.842Z,100.00
2019-05-07T00:11:26.335Z,100.00
2019-05-07T00:13:56.129Z,100.00
2019-05-07T00:16:27.361Z,100.00
2019-05-07T00:18:59.426Z,100.00
2019-05-07T00:21:28.860Z,100.00
2019-05-07T00:23:58.359Z,100.00
2019-05-07T00:26:27.764Z,100.00
2019-05-07T00:28:57.554Z,100.00
2019-05-07T00:31:27.076Z,100.00
2019-05-07T00:33:56.529Z,100.00
2019-05-07T00:36:32.604Z,100.00
2019-05-07T00:39:21.822Z,100.00
2019-05-07T00:41:57.620Z,100.00
2019-05-07T00:44:27.242Z,100.00
2019-05-07T00:46:56.748Z,100.00
2019-05-07T00:49:27.641Z,100.00
2019-05-07T00:51:57.124Z,100.00
2019-05-07T00:54:29.330Z,100.00
2019-05-07T00:57:03.089Z,100.00
2019-05-07T00:59:32.718Z,100.00
2019-05-07T01:02:02.411Z,100.00
2019-05-07T01:04:33.119Z,100.00
2019-05-07T01:07:02.909Z,100.00
2019-05-07T01:09:32.537Z,100.00
2019-05-07T01:12:03.138Z,100.00
2019-05-07T01:14:32.800Z,100.00
2019-05-07T01:17:02.569Z,100.00
2019-05-07T01:19:32.950Z,100.00
2019-05-07T01:22:03.226Z,100.00
2019-05-07T01:24:32.820Z,100.00
2019-05-07T01:27:02.282Z,100.00
2019-05-07T01:29:32.841Z,100.00
2019-05-07T01:32:13.169Z,100.00
2019-05-07T01:34:52.537Z,100.00
2019-05-07T01:37:23.101Z,100.00
2019-05-07T01:39:53.085Z,100.00
2019-05-07T01:42:24.773Z,100.00
2019-05-07T01:44:54.262Z,100.00
2019-05-07T01:47:23.882Z,100.00
2019-05-07T01:49:55.055Z,100.00
2019-05-07T01:52:25.623Z,100.00
2019-05-07T01:54:55.154Z,100.00
2019-05-07T01:57:24.547Z,100.00
2019-05-07T01:59:53.913Z,100.00
2019-05-07T02:02:33.223Z,100.00
2019-05-07T02:05:12.275Z,100.00
2019-05-07T02:07:47.571Z,100.00
2019-05-07T02:10:34.436Z,100.00
2019-05-07T02:13:03.784Z,100.00
2019-05-07T02:15:33.347Z,100.00
2019-05-07T02:18:02.769Z,100.00
2019-05-07T02:20:32.413Z,100.00
2019-05-07T02:23:02.789Z,100.00
2019-05-07T02:25:32.934Z,100.00
2019-05-07T02:28:02.462Z,100.00
2019-05-07T02:30:35.116Z,100.00
2019-05-07T02:33:03.933Z,100.00
2019-05-07T02:35:35.272Z,100.00
2019-05-07T02:38:13.844Z,100.00
2019-05-07T02:40:53.734Z,100.00
2019-05-07T02:43:23.107Z,100.00
2019-05-07T02:46:17.349Z,100.00
2019-05-07T02:48:43.102Z,100.00
2019-05-07T02:51:24.022Z,100.00
2019-05-07T02:54:03.599Z,100.00
2019-05-07T02:56:33.700Z,100.00
2019-05-07T02:59:04.198Z,100.00
2019-05-07T03:01:34.000Z,100.00
2019-05-07T03:04:03.836Z,100.00
2019-05-07T03:06:34.134Z,100.00
2019-05-07T03:09:04.283Z,100.00
2019-05-07T03:11:34.190Z,100.00
2019-05-07T03:14:03.937Z,100.00
2019-05-07T03:16:43.204Z,100.00
2019-05-07T03:19:04.736Z,100.00
2019-05-07T03:21:54.012Z,100.00
2019-05-07T03:24:43.518Z,100.00
2019-05-07T03:27:14.515Z,100.00
2019-05-07T03:29:47.907Z,100.00
2019-05-07T03:32:38.051Z,100.00
2019-05-07T03:35:16.309Z,100.00
2019-05-07T03:37:44.481Z,100.00
2019-05-07T03:40:14.495Z,100.00
2019-05-07T03:42:44.396Z,100.00
2019-05-07T03:45:23.985Z,100.00
2019-05-07T03:48:04.135Z,100.00
2019-05-07T03:50:33.907Z,100.00
2019-05-07T03:53:03.427Z,100.00
2019-05-07T03:55:33.367Z,100.00
2019-05-07T03:58:03.348Z,100.00
2019-05-07T04:00:33.428Z,100.00
2019-05-07T04:03:03.668Z,100.00
2019-05-07T04:05:34.254Z,100.00
2019-05-07T04:08:04.006Z,100.00
2019-05-07T04:10:33.986Z,100.00
2019-05-07T04:13:04.618Z,100.00
2019-05-07T04:15:34.333Z,100.00
2019-05-07T04:18:03.927Z,100.00
2019-05-07T04:20:33.679Z,100.00
2019-05-07T04:23:04.320Z,100.00
2019-05-07T04:25:53.030Z,100.00
2019-05-07T04:28:43.599Z,100.00
2019-05-07T04:31:14.069Z,100.00
2019-05-07T04:33:44.208Z,100.00
2019-05-07T04:36:35.139Z,100.00
2019-05-07T04:39:06.105Z,100.00
2019-05-07T04:41:35.573Z,100.00
2019-05-07T04:44:05.282Z,100.00
2019-05-07T04:46:34.671Z,100.00
2019-05-07T04:49:04.276Z,100.00
2019-05-07T04:51:48.527Z,100.00
2019-05-07T04:54:18.041Z,100.00
2019-05-07T04:56:47.579Z,100.00
2019-05-07T04:59:17.000Z,100.00
2019-05-07T05:01:53.281Z,100.00
2019-05-07T05:04:30.240Z,100.00
2019-05-07T05:06:54.008Z,100.00
2019-05-07T05:09:23.567Z,100.00
2019-05-07T05:11:53.206Z,100.00
2019-05-07T05:14:23.047Z,100.00
2019-05-07T05:16:52.679Z,100.00
2019-05-07T05:19:22.968Z,100.00
2019-05-07T05:22:12.674Z,100.00
2019-05-07T05:24:45.151Z,100.00
2019-05-07T05:27:14.652Z,100.00
2019-05-07T05:29:44.075Z,100.00
2019-05-07T05:32:13.457Z,100.00
2019-05-07T05:34:42.863Z,100.00
2019-05-07T05:37:12.383Z,100.00
2019-05-07T05:39:42.610Z,100.00
2019-05-07T05:42:33.041Z,100.00
2019-05-07T05:45:02.838Z,100.00
2019-05-07T05:47:33.016Z,100.00
2019-05-07T05:50:03.253Z,100.00
2019-05-07T05:52:46.541Z,100.00
2019-05-07T05:55:18.347Z,100.00
2019-05-07T05:58:09.657Z,100.00
2019-05-07T06:01:02.557Z,100.00
2019-05-07T06:03:53.992Z,100.00
2019-05-07T06:06:34.383Z,100.00
2019-05-07T06:09:12.492Z,100.00
2019-05-07T06:12:06.797Z,100.00
2019-05-07T06:14:45.997Z,100.00
2019-05-07T06:17:42.535Z,100.00
2019-05-07T06:20:24.754Z,100.00
2019-05-07T06:23:17.027Z,100.00
2019-05-07T06:25:47.104Z,100.00
2019-05-07T06:28:17.046Z,100.00
2019-05-07T06:30:46.536Z,100.00
2019-05-07T06:33:15.956Z,100.00
2019-05-07T06:35:45.432Z,100.00
2019-05-07T06:38:15.480Z,100.00
2019-05-07T06:41:13.105Z,100.00
2019-05-07T06:43:47.141Z,100.00
2019-05-07T06:46:16.737Z,100.00
2019-05-07T06:48:46.488Z,100.00
2019-05-07T06:51:17.552Z,100.00
2019-05-07T06:53:47.180Z,100.00
2019-05-07T06:56:16.600Z,98.51
2019-05-07T06:58:52.619Z,97.91
2019-05-07T07:01:44.344Z,98.77
2019-05-07T07:04:34.401Z,99.03
2019-05-07T07:07:30.738Z,98.95
2019-05-07T07:10:02.648Z,98.98
2019-05-07T07:12:33.235Z,97.85
2019-05-07T07:15:02.922Z,97.81
2019-05-07T07:17:32.785Z,97.39
2019-05-07T07:20:02.458Z,96.25
2019-05-07T07:22:32.137Z,95.97
2019-05-07T07:25:02.924Z,95.84
2019-05-07T07:27:32.715Z,92.09
2019-05-07T07:30:21.815Z,93.00
2019-05-07T07:32:52.017Z,93.63
2019-05-07T07:35:22.584Z,92.36
2019-05-07T07:37:53.083Z,90.05
2019-05-07T07:40:45.258Z,90.07
2019-05-07T07:43:14.603Z,88.61
2019-05-07T07:45:44.039Z,87.90
2019-05-07T07:48:13.402Z,87.87
2019-05-07T07:50:42.820Z,72.31
2019-05-07T07:53:12.929Z,69.41
2019-05-07T07:56:02.574Z,69.83
2019-05-07T07:58:41.966Z,71.02
2019-05-07T08:01:19.546Z,73.28
2019-05-07T08:03:49.078Z,72.15
2019-05-07T08:06:18.571Z,73.59
2019-05-07T08:08:48.113Z,72.18
2019-05-07T08:11:17.672Z,67.14
2019-05-07T08:13:47.163Z,67.96
2019-05-07T08:16:19.317Z,68.72
2019-05-07T08:18:49.190Z,67.06
2019-05-07T08:21:18.754Z,67.52
2019-05-07T08:23:48.132Z,67.80
2019-05-07T08:26:17.619Z,66.13
2019-05-07T08:28:47.122Z,63.39
2019-05-07T08:31:35.833Z,64.61
2019-05-07T08:34:31.988Z,65.14
2019-05-07T08:37:01.962Z,60.05
2019-05-07T08:39:32.595Z,61.76
2019-05-07T08:42:02.232Z,62.00
2019-05-07T08:44:42.956Z,62.47
2019-05-07T08:47:43.796Z,62.44
2019-05-07T08:50:13.308Z,60.87
2019-05-07T08:52:42.789Z,59.53
2019-05-07T08:55:13.493Z,59.16
2019-05-07T08:57:45.775Z,59.95
2019-05-07T09:00:15.823Z,60.21
2019-05-07T09:02:45.284Z,60.48
2019-05-07T09:05:14.978Z,57.03
2019-05-07T09:07:44.616Z,57.50
2019-05-07T09:10:14.379Z,58.28
2019-05-07T09:12:45.868Z,59.13
2019-05-07T09:15:15.308Z,59.60
2019-05-07T09:17:44.789Z,60.39
2019-05-07T09:20:14.271Z,58.81
2019-05-07T09:22:43.900Z,59.05
2019-05-07T09:25:13.747Z,59.09
2019-05-07T09:27:48.164Z,57.09
2019-05-07T09:30:42.531Z,58.17
2019-05-07T09:33:42.162Z,56.00
2019-05-07T09:36:19.752Z,52.80
2019-05-07T09:38:56.837Z,52.69
2019-05-07T09:41:29.654Z,53.61
2019-05-07T09:43:59.575Z,54.35
2019-05-07T09:46:29.056Z,54.84
2019-05-07T09:48:58.566Z,50.47
2019-05-07T09:51:27.957Z,51.62
2019-05-07T09:53:57.444Z,51.75
2019-05-07T09:56:26.958Z,52.13
2019-05-07T09:58:56.486Z,50.59
2019-05-07T10:01:25.994Z,46.76
2019-05-07T10:03:55.448Z,48.34
2019-05-07T10:06:24.973Z,49.40
2019-05-07T10:08:54.992Z,45.83
2019-05-07T10:11:34.495Z,47.49
2019-05-07T10:14:07.996Z,46.45
2019-05-07T10:16:52.291Z,48.18
2019-05-07T10:19:22.240Z,48.25
2019-05-07T10:21:52.947Z,48.07
2019-05-07T10:24:22.657Z,45.83
2019-05-07T10:26:53.204Z,46.43
2019-05-07T10:29:22.911Z,47.40
2019-05-07T10:31:52.845Z,47.82
2019-05-07T10:34:23.035Z,47.82
2019-05-07T10:36:52.483Z,47.63
2019-05-07T10:39:22.101Z,44.68
2019-05-07T10:41:51.475Z,43.92
2019-05-07T10:44:23.474Z,43.59
2019-05-07T10:47:12.102Z,44.93
2019-05-07T10:49:46.045Z,43.70
2019-05-07T10:52:15.550Z,43.13
2019-05-07T10:54:56.785Z,42.67
2019-05-07T10:57:16.257Z,41.04
2019-05-07T10:59:45.634Z,38.92
2019-05-07T11:02:23.067Z,35.86
2019-05-07T11:04:53.247Z,37.40
2019-05-07T11:07:22.647Z,36.02
2019-05-07T11:09:52.482Z,38.55
2019-05-07T11:12:22.943Z,40.39
2019-05-07T11:14:52.524Z,40.66
2019-05-07T11:17:39.451Z,41.19
2019-05-07T11:20:12.041Z,37.71
2019-05-07T11:22:42.877Z,38.65
2019-05-07T11:25:12.535Z,41.07
2019-05-07T11:27:42.227Z,41.64
2019-05-07T11:30:12.439Z,41.14
2019-05-07T11:32:42.927Z,39.03
2019-05-07T11:35:14.722Z,39.67
2019-05-07T11:37:44.382Z,39.73
2019-05-07T11:40:14.450Z,39.91
2019-05-07T11:43:06.034Z,39.45
2019-05-07T11:45:54.012Z,39.79
2019-05-07T11:48:22.870Z,39.81
2019-05-07T11:51:26.814Z,38.04
2019-05-07T11:54:12.378Z,37.29
2019-05-07T11:56:42.366Z,37.84
2019-05-07T11:59:13.373Z,38.82
2019-05-07T12:01:47.902Z,39.15
2019-05-07T12:04:17.761Z,39.28
2019-05-07T12:06:47.110Z,39.48
2019-05-07T12:09:16.529Z,39.73
2019-05-07T12:11:45.938Z,37.00
2019-05-07T12:14:27.982Z,38.96
2019-05-07T12:16:46.690Z,40.05
2019-05-07T12:19:16.606Z,40.53
2019-05-07T12:21:46.462Z,40.42
2019-05-07T12:24:16.478Z,39.16
2019-05-07T12:26:46.466Z,39.92
2019-05-07T12:29:15.894Z,40.05
2019-05-07T12:32:16.271Z,41.44
2019-05-07T12:34:48.919Z,41.44
2019-05-07T12:37:18.310Z,38.73
2019-05-07T12:39:47.813Z,39.52
2019-05-07T12:42:17.255Z,39.32
2019-05-07T12:44:46.713Z,39.27
2019-05-07T12:47:16.211Z,38.82
2019-05-07T12:49:45.654Z,34.16
2019-05-07T12:52:23.375Z,34.78
2019-05-07T12:55:11.920Z,35.44
2019-05-07T12:57:42.063Z,35.35
2019-05-07T13:00:29.577Z,35.40
2019-05-07T13:03:26.999Z,36.19
2019-05-07T13:05:56.497Z,36.71
2019-05-07T13:08:26.011Z,38.23
2019-05-07T13:10:55.418Z,39.54
2019-05-07T13:13:28.069Z,40.31
2019-05-07T13:15:57.598Z,41.27
2019-05-07T13:18:26.982Z,41.77
2019-05-07T13:20:56.417Z,43.07
2019-05-07T13:23:25.854Z,44.92
2019-05-07T13:25:55.271Z,45.67
2019-05-07T13:28:24.767Z,48.50
2019-05-07T13:30:54.221Z,50.38
2019-05-07T13:33:23.956Z,51.12
2019-05-07T13:35:53.491Z,53.14
2019-05-07T13:38:48.188Z,54.48
2019-05-07T13:41:39.679Z,49.08
2019-05-07T13:44:34.188Z,42.22
2019-05-07T13:47:21.930Z,40.36
2019-05-07T13:49:53.879Z,35.49
2019-05-07T13:52:24.502Z,36.48
2019-05-07T13:54:54.381Z,37.09
2019-05-07T13:57:24.226Z,38.46
2019-05-07T13:59:54.534Z,38.67
2019-05-07T14:02:26.191Z,39.73
2019-05-07T14:04:55.697Z,40.59
2019-05-07T14:07:26.557Z,41.19
2019-05-07T14:09:55.972Z,39.65
2019-05-07T14:12:25.557Z,39.42
2019-05-07T14:14:55.128Z,39.34
2019-05-07T14:17:24.643Z,39.70
2019-05-07T14:19:54.108Z,40.33
2019-05-07T14:22:23.887Z,39.60
2019-05-07T14:24:53.321Z,40.39
2019-05-07T14:27:22.800Z,40.29
2019-05-07T14:29:52.339Z,39.34
2019-05-07T14:32:31.040Z,40.84
2019-05-07T14:35:20.061Z,41.56
2019-05-07T14:37:53.322Z,41.31
2019-05-07T14:40:25.216Z,41.94
2019-05-07T14:43:03.386Z,41.94
2019-05-07T14:45:32.790Z,41.48
2019-05-07T14:48:03.003Z,42.57
2019-05-07T14:50:33.023Z,42.63
2019-05-07T14:53:02.905Z,43.39
2019-05-07T14:55:32.611Z,45.12
2019-05-07T14:58:02.057Z,46.25
2019-05-07T15:00:31.431Z,47.41
2019-05-07T15:03:01.937Z,49.36
2019-05-07T15:05:31.496Z,49.45
2019-05-07T15:08:10.770Z,49.61
2019-05-07T15:10:32.871Z,49.68
2019-05-07T15:13:02.475Z,50.61
2019-05-07T15:15:32.221Z,51.44
2019-05-07T15:18:15.725Z,52.25
2019-05-07T15:20:47.552Z,53.06
2019-05-07T15:23:22.563Z,53.31
2019-05-07T15:25:52.441Z,53.43
2019-05-07T15:28:22.857Z,52.88
2019-05-07T15:31:02.938Z,52.35
2019-05-07T15:33:32.584Z,51.10
2019-05-07T15:36:02.996Z,50.72
2019-05-07T15:38:32.801Z,50.42
2019-05-07T15:41:02.348Z,50.44
2019-05-07T15:43:37.641Z,50.20
2019-05-07T15:46:07.019Z,49.97
2019-05-07T15:48:36.589Z,50.42
2019-05-07T15:51:06.440Z,50.66
2019-05-07T15:53:42.701Z,50.58
2019-05-07T15:56:12.530Z,51.00
2019-05-07T15:58:42.689Z,51.43
2019-05-07T16:01:12.823Z,51.61
2019-05-07T16:03:44.359Z,51.43
2019-05-07T16:06:13.750Z,51.82
2019-05-07T16:08:50.487Z,52.12
2019-05-07T16:11:23.181Z,51.99
2019-05-07T16:14:12.422Z,52.43
2019-05-07T16:16:45.319Z,52.39
2019-05-07T16:19:34.255Z,52.36
2019-05-07T16:22:08.130Z,52.44
2019-05-07T16:24:37.690Z,52.10
2019-05-07T16:27:07.087Z,51.94
2019-05-07T16:29:36.586Z,51.26
2019-05-07T16:32:07.221Z,50.70
2019-05-07T16:34:36.695Z,51.18
2019-05-07T16:37:07.583Z,51.59
2019-05-07T16:39:37.342Z,50.05
2019-05-07T16:42:08.382Z,47.78
2019-05-07T16:44:38.046Z,43.81
2019-05-07T16:47:07.526Z,41.39
2019-05-07T16:49:37.015Z,37.11
2019-05-07T16:52:06.376Z,37.80
2019-05-07T16:54:35.950Z,37.37
2019-05-07T16:57:33.723Z,36.54
2019-05-07T17:00:04.663Z,36.29
2019-05-07T17:02:38.646Z,36.06
2019-05-07T17:05:12.439Z,35.79
2019-05-07T17:07:49.078Z,35.01
2019-05-07T17:10:19.292Z,35.71
2019-05-07T17:12:48.660Z,36.57
2019-05-07T17:15:18.242Z,37.23
2019-05-07T17:17:52.116Z,37.77
2019-05-07T17:20:22.039Z,38.06
2019-05-07T17:22:52.760Z,37.98
2019-05-07T17:25:37.582Z,39.32
2019-05-07T17:28:07.116Z,40.04
2019-05-07T17:30:37.711Z,40.79
2019-05-07T17:33:07.898Z,41.47
2019-05-07T17:35:37.475Z,42.34
2019-05-07T17:38:09.779Z,42.54
2019-05-07T17:40:38.310Z,43.20
2019-05-07T17:43:15.109Z,43.62
2019-05-07T17:45:45.604Z,44.87
2019-05-07T17:48:14.989Z,45.47
2019-05-07T17:51:06.314Z,45.82
2019-05-07T17:53:35.747Z,46.43
2019-05-07T17:56:05.181Z,47.71
2019-05-07T17:58:34.569Z,48.73
2019-05-07T18:01:04.831Z,49.47
2019-05-07T18:03:35.786Z,50.38
2019-05-07T18:06:05.970Z,51.39
2019-05-07T18:08:35.421Z,52.09
2019-05-07T18:11:17.385Z,53.05
2019-05-07T18:13:36.051Z,54.14
2019-05-07T18:16:33.910Z,55.19
2019-05-07T18:19:03.387Z,56.22
2019-05-07T18:21:32.962Z,57.30
2019-05-07T18:24:13.320Z,58.12
2019-05-07T18:26:33.976Z,58.91
2019-05-07T18:29:03.387Z,59.65
2019-05-07T18:31:51.798Z,60.40
2019-05-07T18:34:21.329Z,61.18
2019-05-07T18:36:52.909Z,62.04
2019-05-07T18:39:22.028Z,62.86
2019-05-07T18:41:52.310Z,63.71
2019-05-07T18:44:22.478Z,64.52
2019-05-07T18:46:52.857Z,65.32
2019-05-07T18:49:22.795Z,66.13
2019-05-07T18:51:52.335Z,66.94
2019-05-07T18:54:31.245Z,67.70
2019-05-07T18:57:02.166Z,68.46
2019-05-07T18:59:33.422Z,69.29
2019-05-07T19:02:03.869Z,70.11
2019-05-07T19:04:35.802Z,70.97
2019-05-07T19:07:05.643Z,71.71
2019-05-07T19:09:35.711Z,72.22
2019-05-07T19:12:06.932Z,72.75
2019-05-07T19:14:37.163Z,73.29
2019-05-07T19:17:07.165Z,73.94
2019-05-07T19:19:37.481Z,74.55
2019-05-07T19:22:07.340Z,75.22
2019-05-07T19:24:45.170Z,75.93
2019-05-07T19:27:12.477Z,76.36
2019-05-07T19:29:45.684Z,76.81
2019-05-07T19:32:17.614Z,77.34
2019-05-07T19:34:47.518Z,77.80
2019-05-07T19:37:17.527Z,78.31
2019-05-07T19:39:49.467Z,78.82
2019-05-07T19:42:20.843Z,79.33
2019-05-07T19:44:52.038Z,79.75
2019-05-07T19:47:23.239Z,80.16
2019-05-07T19:49:55.640Z,80.68
2019-05-07T19:52:26.044Z,81.07
2019-05-07T19:55:01.701Z,81.73
2019-05-07T19:57:36.288Z,82.03
2019-05-07T20:00:07.380Z,82.23
2019-05-07T20:02:44.279Z,82.52
2019-05-07T20:05:16.345Z,82.95
2019-05-07T20:07:46.724Z,83.25
2019-05-07T20:10:22.190Z,83.66
2019-05-07T20:13:12.703Z,84.01
2019-05-07T20:15:46.664Z,84.32
2019-05-07T20:18:21.990Z,84.67
2019-05-07T20:20:53.510Z,84.98
2019-05-07T20:23:32.286Z,85.31
2019-05-07T20:26:08.963Z,85.63
2019-05-07T20:28:41.759Z,85.88
2019-05-07T20:31:12.842Z,86.23
2019-05-07T20:33:43.621Z,86.52
2019-05-07T20:36:18.560Z,86.82
2019-05-07T20:38:49.380Z,87.11
2019-05-07T20:41:19.505Z,87.40
2019-05-07T20:43:52.360Z,87.61
2019-05-07T20:46:22.766Z,87.87
2019-05-07T20:48:55.198Z,88.17
2019-05-07T20:51:29.557Z,88.40
2019-05-07T20:54:14.957Z,88.68
2019-05-07T20:56:53.840Z,88.91
2019-05-07T20:59:24.428Z,89.16
2019-05-07T21:01:54.280Z,89.40
2019-05-07T21:04:24.844Z,89.53
2019-05-07T21:06:54.675Z,89.82
2019-05-07T21:09:24.475Z,89.97
2019-05-07T21:11:54.246Z,90.20
2019-05-07T21:14:25.074Z,90.39
2019-05-07T21:16:54.562Z,90.59
2019-05-07T21:19:24.199Z,90.81
2019-05-07T21:21:53.799Z,91.14
2019-05-07T21:24:23.262Z,91.28
2019-05-07T21:26:53.177Z,91.50
2019-05-07T21:29:22.737Z,91.45
2019-05-07T21:31:52.484Z,91.60
2019-05-07T21:34:23.006Z,91.74
2019-05-07T21:36:52.667Z,91.98
2019-05-07T21:39:22.632Z,92.26
2019-05-07T21:41:52.123Z,92.44
2019-05-07T21:44:22.697Z,92.63
2019-05-07T21:46:52.763Z,92.67
2019-05-07T21:49:22.880Z,92.86
2019-05-07T21:51:54.546Z,93.06
2019-05-07T21:54:32.573Z,93.23
2019-05-07T21:57:22.152Z,93.35
2019-05-07T22:00:12.577Z,93.49
2019-05-07T22:02:41.978Z,93.67
2019-05-07T22:05:12.229Z,93.81
2019-05-07T22:07:41.682Z,93.96
2019-05-07T22:10:12.751Z,94.10
2019-05-07T22:12:42.316Z,94.42
2019-05-07T22:15:13.183Z,94.34
2019-05-07T22:17:44.439Z,94.54
2019-05-07T22:20:13.701Z,94.64
2019-05-07T22:22:43.649Z,94.90
2019-05-07T22:25:13.215Z,94.94
2019-05-07T22:27:42.917Z,95.08
2019-05-07T22:30:16.237Z,95.18
2019-05-07T22:32:52.782Z,95.22
2019-05-07T22:35:29.509Z,95.43
2019-05-07T22:37:58.955Z,95.53
2019-05-07T22:40:28.342Z,95.62
2019-05-07T22:42:57.759Z,95.70
2019-05-07T22:45:27.243Z,96.04
2019-05-07T22:47:56.659Z,96.09
2019-05-07T22:50:26.135Z,96.20
2019-05-07T22:52:55.601Z,96.23
2019-05-07T22:55:25.539Z,96.49
2019-05-07T22:58:06.169Z,96.79
2019-05-07T23:00:42.768Z,96.88
2019-05-07T23:03:13.356Z,96.66
2019-05-07T23:05:44.897Z,96.72
2019-05-07T23:08:14.089Z,96.78
2019-05-07T23:10:44.603Z,96.77
2019-05-07T23:13:14.234Z,96.71
2019-05-07T23:15:43.843Z,96.83
2019-05-07T23:18:13.386Z,97.02
2019-05-07T23:20:42.880Z,97.17
2019-05-07T23:23:14.189Z,97.33
2019-05-07T23:25:43.461Z,97.33
2019-05-07T23:28:12.950Z,97.44
2019-05-07T23:30:44.348Z,97.59
2019-05-07T23:33:13.768Z,97.70
2019-05-07T23:35:43.288Z,97.77
2019-05-07T23:38:15.733Z,97.82
2019-05-07T23:41:02.829Z,98.00
2019-05-07T23:43:32.932Z,98.07
2019-05-07T23:46:02.428Z,98.03
2019-05-07T23:48:32.242Z,98.00
2019-05-07T23:51:02.276Z,98.08
2019-05-07T23:53:31.960Z,98.28
2019-05-07T23:56:02.795Z,98.38
2019-05-07T23:58:32.766Z,98.56
